Jonesboro, Arkansas
Current Conditions -  °F | °C
As of 5:53 AM on Friday 19 Dec 2014 (Local Time) from KJBR Reporting Station
Overcast Overcast  
Wind Chill: 31°   Ceiling: 800
Heat Index: 37°   Visibility: 7mi
Dew Point: 36°   Wind: 8mph
Humidity: 96%   Direction: 60°ENE
Pressure: 30.26"   Gusts: NA
Location:  35.84°N, 90.7°W
Report Text: KJBR 191153Z AUTO 06007KT 7SM BKN008 OVC039 03/02 A3026 RMK AO2 SLP248 T00280022 10039 20028 53010
Loading
Personal Weather Stations






























Interactive Weather Map New forecast layout! Learn more

10-Day Weather Forecast

Advertisements
Track Severe Weather on mobile